createdAt,value
2023-02-08T00:02:25.322Z,103085.67
2023-02-08T00:04:55.664Z,103082.68
2023-02-08T00:07:25.168Z,103079.68
2023-02-08T00:09:53.732Z,103083.61
2023-02-08T00:12:24.088Z,103089.58
2023-02-08T00:14:52.254Z,103086.77
2023-02-08T00:17:20.628Z,103087.45
2023-02-08T00:19:48.843Z,103086.86
2023-02-08T00:22:17.728Z,103088.29
2023-02-08T00:24:45.906Z,103092.96
2023-02-08T00:27:16.002Z,103096.13
2023-02-08T00:29:45.049Z,103095.31
2023-02-08T00:32:13.480Z,103095.23
2023-02-08T00:34:44.541Z,103099.89
2023-02-08T00:37:13.574Z,103099.81
2023-02-08T00:39:42.748Z,103103.05
2023-02-08T00:42:11.602Z,103107.61
2023-02-08T00:44:41.489Z,103105.80
2023-02-08T00:47:11.322Z,103108.17
2023-02-08T00:49:40.761Z,103110.56
2023-02-08T00:52:09.134Z,103113.29
2023-02-08T00:54:44.715Z,103110.66
2023-02-08T00:57:34.054Z,103122.02
2023-02-08T01:00:04.709Z,103120.55
2023-02-08T01:02:34.808Z,103119.09
2023-02-08T01:05:05.233Z,103122.21
2023-02-08T01:07:39.174Z,103121.86
2023-02-08T01:10:09.696Z,103117.98
2023-02-08T01:12:38.757Z,103117.17
2023-02-08T01:15:08.763Z,103116.46
2023-02-08T01:17:38.487Z,103117.02
2023-02-08T01:20:10.935Z,103118.14
2023-02-08T01:22:40.424Z,103126.95
2023-02-08T01:25:08.868Z,103130.88
2023-02-08T01:27:39.179Z,103130.73
2023-02-08T01:30:10.303Z,103128.73
2023-02-08T01:32:38.789Z,103131.09
2023-02-08T01:35:08.011Z,103134.70
2023-02-08T01:37:43.056Z,103137.75
2023-02-08T01:40:33.308Z,103138.89
2023-02-08T01:43:02.559Z,103146.81
2023-02-08T01:45:34.666Z,103143.89
2023-02-08T01:48:09.952Z,103146.73
2023-02-08T01:51:14.031Z,103148.37
2023-02-08T01:53:42.817Z,103151.77
2023-02-08T01:56:14.644Z,103155.05
2023-02-08T01:58:45.861Z,103159.16
2023-02-08T02:01:14.220Z,103169.92
2023-02-08T02:03:42.694Z,103172.02
2023-02-08T02:06:18.329Z,103175.05
2023-02-08T02:09:08.052Z,103173.97
2023-02-08T02:11:41.641Z,103177.33
2023-02-08T02:14:10.789Z,103181.95
2023-02-08T02:16:43.161Z,103182.68
2023-02-08T02:19:50.976Z,103184.49
2023-02-08T02:22:27.795Z,103190.04
2023-02-08T02:25:19.588Z,103194.14
2023-02-08T02:28:07.456Z,103200.92
2023-02-08T02:31:13.203Z,103205.40
2023-02-08T02:33:41.611Z,103208.65
2023-02-08T02:36:12.751Z,103208.83
2023-02-08T02:39:05.147Z,103207.91
2023-02-08T02:42:23.950Z,103213.85
2023-02-08T02:45:27.574Z,103211.56
2023-02-08T02:48:13.829Z,103218.82
2023-02-08T02:50:47.598Z,103223.04
2023-02-08T02:53:40.494Z,103225.90
2023-02-08T02:56:13.812Z,103236.10
2023-02-08T02:58:42.968Z,103232.20
2023-02-08T03:01:11.256Z,103241.10
2023-02-08T03:03:40.734Z,103239.81
2023-02-08T03:06:40.867Z,103245.58
2023-02-08T03:09:36.086Z,103243.88
2023-02-08T03:12:28.445Z,103250.14
2023-02-08T03:15:34.179Z,103249.95
2023-02-08T03:18:08.885Z,103246.14
2023-02-08T03:20:39.687Z,103242.90
2023-02-08T03:23:20.685Z,103247.30
2023-02-08T03:25:57.914Z,103245.54
2023-02-08T03:28:40.232Z,103244.20
2023-02-08T03:31:27.182Z,103245.02
2023-02-08T03:34:01.970Z,103243.88
2023-02-08T03:36:38.782Z,103250.86
2023-02-08T03:39:09.240Z,103252.40
2023-02-08T03:41:43.919Z,103253.41
2023-02-08T03:44:17.349Z,103256.09
2023-02-08T03:47:13.503Z,103254.84
2023-02-08T03:49:41.856Z,103266.69
2023-02-08T03:52:10.391Z,103273.41
2023-02-08T03:54:45.611Z,103271.46
2023-02-08T03:57:36.341Z,103275.18
2023-02-08T04:00:10.720Z,103280.83
2023-02-08T04:03:08.427Z,103281.11
2023-02-08T04:05:37.439Z,103282.31
2023-02-08T04:08:06.415Z,103283.16
2023-02-08T04:10:34.852Z,103282.95
2023-02-08T04:13:47.370Z,103286.41
2023-02-08T04:16:15.920Z,103288.09
2023-02-08T04:18:45.841Z,103287.98
2023-02-08T04:21:14.731Z,103296.80
2023-02-08T04:23:44.330Z,103302.08
2023-02-08T04:26:12.671Z,103307.73
2023-02-08T04:28:40.823Z,103311.40
2023-02-08T04:31:09.304Z,103314.83
2023-02-08T04:33:37.679Z,103315.92
2023-02-08T04:36:06.601Z,103319.66
2023-02-08T04:38:36.984Z,103322.93
2023-02-08T04:41:06.101Z,103328.98
2023-02-08T04:43:35.867Z,103331.73
2023-02-08T04:46:04.259Z,103336.91
2023-02-08T04:48:33.644Z,103340.69
2023-02-08T04:51:01.950Z,103343.01
2023-02-08T04:53:30.252Z,103347.10
2023-02-08T04:55:58.435Z,103350.27
2023-02-08T04:58:26.860Z,103355.02
2023-02-08T05:00:55.524Z,103364.09
2023-02-08T05:03:24.193Z,103365.77
2023-02-08T05:05:59.464Z,103370.23
2023-02-08T05:08:28.374Z,103366.40
2023-02-08T05:10:56.826Z,103366.77
2023-02-08T05:13:25.139Z,103372.43
2023-02-08T05:15:54.272Z,103378.70
2023-02-08T05:18:30.153Z,103384.66
2023-02-08T05:21:01.277Z,103388.17
2023-02-08T05:23:29.887Z,103390.89
2023-02-08T05:25:58.470Z,103394.80
2023-02-08T05:28:26.850Z,103393.89
2023-02-08T05:30:55.663Z,103391.89
2023-02-08T05:33:29.606Z,103393.48
2023-02-08T05:35:59.320Z,103390.84
2023-02-08T05:38:30.398Z,103388.70
2023-02-08T05:40:58.863Z,103391.91
2023-02-08T05:43:27.258Z,103393.10
2023-02-08T05:45:55.699Z,103396.45
2023-02-08T05:48:24.012Z,103401.24
2023-02-08T05:50:55.460Z,103403.39
2023-02-08T05:53:24.077Z,103407.09
2023-02-08T05:55:53.241Z,103408.23
2023-02-08T05:58:21.630Z,103413.33
2023-02-08T06:00:51.663Z,103412.45
2023-02-08T06:03:20.435Z,103416.49
2023-02-08T06:05:51.371Z,103414.39
2023-02-08T06:08:19.875Z,103418.75
2023-02-08T06:10:49.289Z,103420.38
2023-02-08T06:13:18.469Z,103418.08
2023-02-08T06:15:49.798Z,103421.25
2023-02-08T06:18:18.556Z,103422.69
2023-02-08T06:20:47.178Z,103422.01
2023-02-08T06:23:15.774Z,103423.34
2023-02-08T06:25:47.973Z,103432.98
2023-02-08T06:28:16.779Z,103431.40
2023-02-08T06:30:45.248Z,103430.52
2023-02-08T06:33:35.884Z,103429.68
2023-02-08T06:36:04.596Z,103428.38
2023-02-08T06:38:33.122Z,103436.70
2023-02-08T06:41:01.599Z,103440.94
2023-02-08T06:43:31.701Z,103441.63
2023-02-08T06:46:00.302Z,103447.02
2023-02-08T06:48:28.979Z,103446.25
2023-02-08T06:50:58.035Z,103453.09
2023-02-08T06:53:26.794Z,103458.90
2023-02-08T06:55:55.422Z,103456.95
2023-02-08T06:58:24.237Z,103457.34
2023-02-08T07:00:52.601Z,103462.05
2023-02-08T07:03:23.007Z,103461.12
2023-02-08T07:18:13.170Z,103459.38
2023-02-08T07:20:42.282Z,103464.25
2023-02-08T07:23:13.541Z,103464.23
2023-02-08T07:25:42.044Z,103464.63
2023-02-08T07:28:10.857Z,103471.65
2023-02-08T07:30:39.665Z,103466.35
2023-02-08T07:33:08.666Z,103460.95
2023-02-08T07:35:37.234Z,103460.40
2023-02-08T07:38:06.118Z,103464.61
2023-02-08T07:40:36.386Z,103461.36
2023-02-08T07:43:06.766Z,103462.91
2023-02-08T07:45:45.932Z,103462.15
2023-02-08T07:48:40.233Z,103463.17
2023-02-08T07:51:11.377Z,103464.20
2023-02-08T07:53:41.402Z,103465.42
2023-02-08T07:56:13.249Z,103470.33
2023-02-08T07:58:43.055Z,103470.45
2023-02-08T08:01:22.031Z,103473.43
2023-02-08T08:04:13.506Z,103475.90
2023-02-08T08:06:47.746Z,103471.52
2023-02-08T08:09:16.985Z,103480.77
2023-02-08T08:11:45.644Z,103484.14
2023-02-08T08:14:15.060Z,103481.54
2023-02-08T08:16:44.067Z,103486.02
2023-02-08T08:19:14.185Z,103488.73
2023-02-08T08:21:43.289Z,103488.41
2023-02-08T08:25:15.014Z,103480.92
2023-02-08T08:27:46.409Z,103492.13
2023-02-08T08:30:17.138Z,103491.23
2023-02-08T08:32:45.759Z,103498.93
2023-02-08T08:35:14.273Z,103501.86
2023-02-08T08:37:42.592Z,103501.25
2023-02-08T08:40:11.240Z,103506.23
2023-02-08T08:42:40.315Z,103509.30
2023-02-08T08:45:19.858Z,103510.95
2023-02-08T08:47:49.321Z,103507.06
2023-02-08T08:50:18.325Z,103507.37
2023-02-08T08:52:46.805Z,103508.03
2023-02-08T08:55:15.807Z,103505.98
2023-02-08T08:57:44.720Z,103503.64
2023-02-08T09:00:14.243Z,103498.73
2023-02-08T09:02:42.829Z,103492.41
2023-02-08T09:05:11.701Z,103486.36
2023-02-08T09:19:44.981Z,103480.50
2023-02-08T09:22:12.983Z,103483.77
2023-02-08T09:24:40.204Z,103484.80
2023-02-08T09:27:08.740Z,103485.64
2023-02-08T09:29:36.174Z,103489.27
2023-02-08T09:32:03.225Z,103490.80
2023-02-08T09:34:30.451Z,103483.89
2023-02-08T09:36:59.102Z,103485.35
2023-02-08T09:39:25.915Z,103483.83
2023-02-08T09:42:15.290Z,103480.70
2023-02-08T09:44:55.606Z,103482.91
2023-02-08T09:47:34.055Z,103480.34
2023-02-08T09:50:03.852Z,103478.20
2023-02-08T09:52:50.302Z,103474.85
2023-02-08T09:55:38.332Z,103474.75
2023-02-08T09:58:23.047Z,103471.20
2023-02-08T10:00:51.111Z,103467.35
2023-02-08T10:03:34.381Z,103466.37
2023-02-08T10:06:04.458Z,103466.01
2023-02-08T10:08:35.890Z,103468.12
2023-02-08T10:11:43.591Z,103462.87
2023-02-08T10:14:35.771Z,103466.46
2023-02-08T10:17:27.829Z,103462.30
2023-02-08T10:20:14.564Z,103454.80
2023-02-08T10:22:53.893Z,103458.21
2023-02-08T10:25:50.507Z,103457.44
2023-02-08T10:29:05.345Z,103453.26
2023-02-08T10:31:44.233Z,103456.72
2023-02-08T10:34:23.961Z,103458.85
2023-02-08T10:36:51.705Z,103451.00
2023-02-08T10:39:26.231Z,103452.20
2023-02-08T10:41:53.975Z,103450.31
2023-02-08T10:44:34.031Z,103444.13
2023-02-08T10:47:18.286Z,103445.57
2023-02-08T10:53:57.544Z,103438.92
2023-02-08T10:56:47.453Z,103445.55
2023-02-08T10:59:49.912Z,103435.37
2023-02-08T11:02:26.483Z,103440.06
2023-02-08T11:05:07.094Z,103438.54
2023-02-08T11:07:37.230Z,103440.14
2023-02-08T11:10:19.993Z,103435.88
2023-02-08T11:13:05.343Z,103438.70
2023-02-08T11:15:57.928Z,103439.29
2023-02-08T11:19:35.714Z,103432.80
2023-02-08T11:22:06.659Z,103428.86
2023-02-08T11:24:40.803Z,103428.46
2023-02-08T11:27:26.388Z,103429.65
2023-02-08T11:30:18.918Z,103424.45
2023-02-08T11:33:40.188Z,103424.70
2023-02-08T11:36:12.180Z,103424.02
2023-02-08T11:38:45.261Z,103421.70
2023-02-08T11:41:18.603Z,103425.29
2023-02-08T11:43:58.787Z,103425.94
2023-02-08T11:46:29.545Z,103426.20
2023-02-08T11:49:03.663Z,103426.27
2023-02-08T11:51:45.167Z,103432.93
2023-02-08T11:54:33.309Z,103433.27
2023-02-08T11:57:14.735Z,103430.15
2023-02-08T11:59:45.051Z,103430.82
2023-02-08T12:02:40.514Z,103436.17
2023-02-08T12:05:13.739Z,103437.59
2023-02-08T12:08:21.228Z,103440.71
2023-02-08T12:11:14.638Z,103438.72
2023-02-08T12:14:28.902Z,103438.82
2023-02-08T12:17:20.336Z,103439.10
2023-02-08T12:20:17.240Z,103447.13
2023-02-08T12:23:36.556Z,103448.51
2023-02-08T12:26:17.579Z,103448.88
2023-02-08T12:29:23.155Z,103451.29
2023-02-08T12:32:03.091Z,103442.54
2023-02-08T12:34:51.028Z,103444.18
2023-02-08T12:37:48.140Z,103435.29
2023-02-08T12:40:50.337Z,103439.15
2023-02-08T12:43:25.918Z,103444.36
2023-02-08T12:46:18.135Z,103437.11
2023-02-08T12:49:00.964Z,103448.94
2023-02-08T12:51:49.311Z,103444.02
2023-02-08T12:54:34.270Z,103444.68
2023-02-08T12:57:02.781Z,103446.06
2023-02-08T13:00:02.292Z,103444.06
2023-02-08T13:03:14.723Z,103446.54
2023-02-08T13:06:01.678Z,103445.80
2023-02-08T13:08:30.441Z,103450.88
2023-02-08T13:11:18.824Z,103444.12
2023-02-08T13:14:09.944Z,103445.35
2023-02-08T13:16:44.227Z,103440.64
2023-02-08T13:19:27.683Z,103441.77
2023-02-08T13:22:03.740Z,103442.24
2023-02-08T13:24:36.396Z,103446.86
2023-02-08T13:27:07.307Z,103451.16
2023-02-08T13:29:37.417Z,103451.89
2023-02-08T13:32:10.240Z,103454.65
2023-02-08T13:34:51.295Z,103450.16
2023-02-08T13:37:30.176Z,103451.32
2023-02-08T13:40:13.589Z,103453.45
2023-02-08T13:45:39.784Z,103455.08
2023-02-08T13:48:11.235Z,103449.98
2023-02-08T13:50:47.469Z,103453.38
2023-02-08T13:53:38.182Z,103456.98
2023-02-08T13:56:13.793Z,103460.18
2023-02-08T13:58:50.021Z,103458.84
2023-02-08T14:01:28.540Z,103461.10
2023-02-08T14:04:16.841Z,103456.56
2023-02-08T14:06:45.947Z,103462.05
2023-02-08T14:09:21.719Z,103468.29
2023-02-08T14:11:56.695Z,103466.48
2023-02-08T14:14:27.434Z,103464.81
2023-02-08T14:17:04.052Z,103456.75
2023-02-08T14:19:32.554Z,103456.21
2023-02-08T14:22:04.149Z,103453.46
2023-02-08T14:24:39.152Z,103449.80
2023-02-08T14:27:23.269Z,103451.45
2023-02-08T14:30:24.689Z,103454.70
2023-02-08T14:33:18.687Z,103452.75
2023-02-08T14:36:04.367Z,103455.39
2023-02-08T14:38:50.336Z,103453.29
2023-02-08T14:41:49.795Z,103457.70
2023-02-08T14:44:37.261Z,103463.01
2023-02-08T14:47:12.970Z,103462.02
2023-02-08T14:49:44.680Z,103463.66
2023-02-08T14:52:14.202Z,103465.48
2023-02-08T14:54:48.534Z,103462.95
2023-02-08T14:57:35.825Z,103465.41
2023-02-08T15:00:15.985Z,103465.79
2023-02-08T15:03:05.658Z,103469.25
2023-02-08T15:05:42.204Z,103473.91
2023-02-08T15:08:21.194Z,103475.23
2023-02-08T15:11:22.056Z,103479.64
2023-02-08T15:13:50.705Z,103474.33
2023-02-08T15:16:18.114Z,103479.61
2023-02-08T15:18:46.022Z,103485.58
2023-02-08T15:21:18.214Z,103491.41
2023-02-08T15:24:07.509Z,103490.77
2023-02-08T15:26:34.753Z,103490.19
2023-02-08T15:29:04.507Z,103491.80
2023-02-08T15:31:33.437Z,103494.25
2023-02-08T15:34:02.290Z,103487.78
2023-02-08T15:36:33.309Z,103489.46
2023-02-08T15:39:03.859Z,103491.52
2023-02-08T15:41:53.432Z,103494.23
2023-02-08T15:44:27.796Z,103497.69
2023-02-08T15:46:57.683Z,103493.23
2023-02-08T20:54:03.172Z,103583.61
2023-02-08T20:56:35.951Z,103583.40
2023-02-08T21:00:01.280Z,103581.25
2023-02-08T21:02:31.557Z,103577.48
2023-02-08T21:05:07.458Z,103573.08
